sensor_id;sensor_type;location;lat;lon;timestamp;pressure;altitude;pressure_sealevel;temperature;humidity
49841;BME280;35738;49.890;5.930;2024-01-30T00:00:46;96924.19;;;5.12;82.97
49841;BME280;35738;49.890;5.930;2024-01-30T00:03:13;96927.81;;;5.11;82.60
49841;BME280;35738;49.890;5.930;2024-01-30T00:05:39;96921.72;;;5.17;82.26
49841;BME280;35738;49.890;5.930;2024-01-30T00:08:06;96925.34;;;5.16;82.95
49841;BME280;35738;49.890;5.930;2024-01-30T00:10:32;96916.47;;;5.17;82.18
49841;BME280;35738;49.890;5.930;2024-01-30T00:12:59;96914.09;;;5.15;82.02
49841;BME280;35738;49.890;5.930;2024-01-30T00:15:26;96919.31;;;5.15;82.41
49841;BME280;35738;49.890;5.930;2024-01-30T00:17:52;96923.16;;;5.13;82.52
49841;BME280;35738;49.890;5.930;2024-01-30T00:20:20;96919.75;;;5.12;82.33
49841;BME280;35738;49.890;5.930;2024-01-30T00:22:47;96925.78;;;5.13;82.35
49841;BME280;35738;49.890;5.930;2024-01-30T00:25:13;96916.91;;;5.14;81.88
49841;BME280;35738;49.890;5.930;2024-01-30T00:27:40;96919.53;;;5.14;82.23
49841;BME280;35738;49.890;5.930;2024-01-30T00:30:07;96922.00;;;5.09;82.38
49841;BME280;35738;49.890;5.930;2024-01-30T00:32:34;96912.44;;;5.03;82.87
49841;BME280;35738;49.890;5.930;2024-01-30T00:35:01;96911.41;;;5.04;82.67
49841;BME280;35738;49.890;5.930;2024-01-30T00:37:28;96910.22;;;5.00;83.01
49841;BME280;35738;49.890;5.930;2024-01-30T00:39:54;96917.06;;;5.01;82.53
49841;BME280;35738;49.890;5.930;2024-01-30T00:42:21;96916.66;;;5.04;82.83
49841;BME280;35738;49.890;5.930;2024-01-30T00:44:50;96915.06;;;5.03;82.71
49841;BME280;35738;49.890;5.930;2024-01-30T00:47:16;96923.53;;;4.98;82.23
49841;BME280;35738;49.890;5.930;2024-01-30T00:49:43;96922.72;;;4.98;83.13
49841;BME280;35738;49.890;5.930;2024-01-30T00:52:09;96921.56;;;4.94;83.24
49841;BME280;35738;49.890;5.930;2024-01-30T00:54:36;96928.03;;;4.91;83.67
49841;BME280;35738;49.890;5.930;2024-01-30T00:57:03;96927.66;;;4.88;82.60
49841;BME280;35738;49.890;5.930;2024-01-30T00:59:30;96926.06;;;4.86;82.72
49841;BME280;35738;49.890;5.930;2024-01-30T01:01:56;96933.34;;;4.84;83.60
49841;BME280;35738;49.890;5.930;2024-01-30T01:04:23;96936.97;;;4.83;83.20
49841;BME280;35738;49.890;5.930;2024-01-30T01:06:49;96931.00;;;4.76;82.75
49841;BME280;35738;49.890;5.930;2024-01-30T01:09:16;96928.59;;;4.75;83.27
49841;BME280;35738;49.890;5.930;2024-01-30T01:11:43;96923.00;;;4.71;82.53
49841;BME280;35738;49.890;5.930;2024-01-30T01:14:09;96921.84;;;4.67;82.84
49841;BME280;35738;49.890;5.930;2024-01-30T01:16:36;96926.03;;;4.68;83.34
49841;BME280;35738;49.890;5.930;2024-01-30T01:19:04;96930.25;;;4.69;84.01
49841;BME280;35738;49.890;5.930;2024-01-30T01:21:31;96925.47;;;4.66;83.85
49841;BME280;35738;49.890;5.930;2024-01-30T01:23:57;96926.47;;;4.65;83.09
49841;BME280;35738;49.890;5.930;2024-01-30T01:26:24;96922.25;;;4.64;84.11
49841;BME280;35738;49.890;5.930;2024-01-30T01:28:50;96920.63;;;4.63;83.42
49841;BME280;35738;49.890;5.930;2024-01-30T01:31:17;96920.28;;;4.60;83.85
49841;BME280;35738;49.890;5.930;2024-01-30T01:33:45;96915.25;;;4.58;84.05
49841;BME280;35738;49.890;5.930;2024-01-30T01:36:13;96917.22;;;4.63;84.04
49841;BME280;35738;49.890;5.930;2024-01-30T01:38:40;96917.44;;;4.61;83.71
49841;BME280;35738;49.890;5.930;2024-01-30T01:41:06;96917.00;;;4.64;84.76
49841;BME280;35738;49.890;5.930;2024-01-30T01:43:33;96910.78;;;4.65;84.57
49841;BME280;35738;49.890;5.930;2024-01-30T01:45:59;96919.81;;;4.69;83.92
49841;BME280;35738;49.890;5.930;2024-01-30T01:48:26;96913.56;;;4.70;84.10
49841;BME280;35738;49.890;5.930;2024-01-30T01:50:53;96912.53;;;4.71;84.21
49841;BME280;35738;49.890;5.930;2024-01-30T01:53:20;96916.03;;;4.65;84.04
49841;BME280;35738;49.890;5.930;2024-01-30T01:55:48;96910.19;;;4.63;83.52
49841;BME280;35738;49.890;5.930;2024-01-30T01:58:14;96907.56;;;4.63;83.78
49841;BME280;35738;49.890;5.930;2024-01-30T02:00:41;96916.03;;;4.65;83.70
49841;BME280;35738;49.890;5.930;2024-01-30T02:03:10;96905.34;;;4.67;84.30
49841;BME280;35738;49.890;5.930;2024-01-30T02:05:39;96908.97;;;4.66;84.14
49841;BME280;35738;49.890;5.930;2024-01-30T02:08:08;96903.69;;;4.72;84.08
49841;BME280;35738;49.890;5.930;2024-01-30T02:10:35;96902.22;;;4.76;83.93
49841;BME280;35738;49.890;5.930;2024-01-30T02:13:02;96898.00;;;4.75;84.02
49841;BME280;35738;49.890;5.930;2024-01-30T02:15:31;96904.84;;;4.76;83.74
49841;BME280;35738;49.890;5.930;2024-01-30T02:17:57;96898.38;;;4.79;83.35
49841;BME280;35738;49.890;5.930;2024-01-30T02:20:25;96892.91;;;4.80;83.79
49841;BME280;35738;49.890;5.930;2024-01-30T02:22:54;96890.75;;;4.77;82.90
49841;BME280;35738;49.890;5.930;2024-01-30T02:25:30;96895.41;;;4.75;83.83
49841;BME280;35738;49.890;5.930;2024-01-30T02:27:57;96883.47;;;4.79;83.64
49841;BME280;35738;49.890;5.930;2024-01-30T02:30:24;96889.94;;;4.77;83.46
49841;BME280;35738;49.890;5.930;2024-01-30T02:32:50;96904.03;;;4.76;82.76
49841;BME280;35738;49.890;5.930;2024-01-30T02:35:17;96890.38;;;4.74;84.08
49841;BME280;35738;49.890;5.930;2024-01-30T02:37:44;96898.09;;;4.69;82.94
49841;BME280;35738;49.890;5.930;2024-01-30T02:40:10;96883.63;;;4.66;83.23
49841;BME280;35738;49.890;5.930;2024-01-30T02:42:37;96888.78;;;4.73;83.43
49841;BME280;35738;49.890;5.930;2024-01-30T02:45:04;96886.53;;;4.76;82.62
49841;BME280;35738;49.890;5.930;2024-01-30T02:47:30;96883.47;;;4.79;83.30
49841;BME280;35738;49.890;5.930;2024-01-30T02:49:57;96887.88;;;4.85;83.68
49841;BME280;35738;49.890;5.930;2024-01-30T02:52:23;96897.31;;;5.05;83.40
49841;BME280;35738;49.890;5.930;2024-01-30T02:54:50;96893.38;;;4.96;83.11
49841;BME280;35738;49.890;5.930;2024-01-30T02:57:16;96889.03;;;4.90;83.04
49841;BME280;35738;49.890;5.930;2024-01-30T02:59:43;96891.50;;;4.84;82.73
49841;BME280;35738;49.890;5.930;2024-01-30T03:02:09;96895.13;;;4.83;82.61
49841;BME280;35738;49.890;5.930;2024-01-30T03:04:36;96899.91;;;4.86;82.38
49841;BME280;35738;49.890;5.930;2024-01-30T03:07:03;96890.31;;;4.80;82.49
49841;BME280;35738;49.890;5.930;2024-01-30T03:09:30;96895.13;;;4.83;82.80
49841;BME280;35738;49.890;5.930;2024-01-30T03:11:57;96898.59;;;4.77;83.21
49841;BME280;35738;49.890;5.930;2024-01-30T03:14:23;96897.00;;;4.76;82.98
49841;BME280;35738;49.890;5.930;2024-01-30T03:16:50;96905.72;;;4.70;82.55
49841;BME280;35738;49.890;5.930;2024-01-30T03:19:16;96901.75;;;4.61;82.88
49841;BME280;35738;49.890;5.930;2024-01-30T03:21:43;96902.63;;;4.55;82.96
49841;BME280;35738;49.890;5.930;2024-01-30T03:24:09;96901.28;;;4.46;83.15
49841;BME280;35738;49.890;5.930;2024-01-30T03:26:36;96896.50;;;4.43;83.15
49841;BME280;35738;49.890;5.930;2024-01-30T03:29:03;96900.31;;;4.47;83.64
49841;BME280;35738;49.890;5.930;2024-01-30T03:31:30;96904.34;;;4.43;82.89
49841;BME280;35738;49.890;5.930;2024-01-30T03:33:57;96890.69;;;4.41;83.84
49841;BME280;35738;49.890;5.930;2024-01-30T03:36:24;96895.75;;;4.36;83.80
49841;BME280;35738;49.890;5.930;2024-01-30T03:38:50;96895.59;;;4.31;83.05
49841;BME280;35738;49.890;5.930;2024-01-30T03:41:17;96901.22;;;4.28;84.24
49841;BME280;35738;49.890;5.930;2024-01-30T03:43:43;96893.25;;;4.22;84.04
49841;BME280;35738;49.890;5.930;2024-01-30T03:46:12;96892.06;;;4.18;84.23
49841;BME280;35738;49.890;5.930;2024-01-30T03:48:38;96895.53;;;4.12;84.62
49841;BME280;35738;49.890;5.930;2024-01-30T03:51:05;96905.81;;;4.07;84.34
49841;BME280;35738;49.890;5.930;2024-01-30T03:53:32;96898.84;;;4.01;84.79
49841;BME280;35738;49.890;5.930;2024-01-30T03:55:58;96902.28;;;3.95;84.19
49841;BME280;35738;49.890;5.930;2024-01-30T03:58:25;96902.72;;;3.92;84.43
49841;BME280;35738;49.890;5.930;2024-01-30T04:00:51;96905.16;;;3.87;84.61
49841;BME280;35738;49.890;5.930;2024-01-30T04:03:18;96890.34;;;3.81;84.77
49841;BME280;35738;49.890;5.930;2024-01-30T04:05:44;96902.78;;;3.79;84.97
49841;BME280;35738;49.890;5.930;2024-01-30T04:08:11;96887.06;;;3.85;84.96
49841;BME280;35738;49.890;5.930;2024-01-30T04:10:38;96892.69;;;3.89;84.91
49841;BME280;35738;49.890;5.930;2024-01-30T04:13:04;96899.72;;;3.88;85.84
49841;BME280;35738;49.890;5.930;2024-01-30T04:15:33;96891.84;;;3.95;85.26
49841;BME280;35738;49.890;5.930;2024-01-30T04:17:59;96887.06;;;3.92;85.13
49841;BME280;35738;49.890;5.930;2024-01-30T04:20:26;96884.84;;;3.89;84.48
49841;BME280;35738;49.890;5.930;2024-01-30T04:22:53;96888.66;;;3.93;85.04
49841;BME280;35738;49.890;5.930;2024-01-30T04:25:19;96896.22;;;4.01;85.63
49841;BME280;35738;49.890;5.930;2024-01-30T04:27:46;96902.44;;;4.00;85.56
49841;BME280;35738;49.890;5.930;2024-01-30T04:30:13;96898.84;;;4.01;84.86
49841;BME280;35738;49.890;5.930;2024-01-30T04:32:40;96903.91;;;3.96;85.93
49841;BME280;35738;49.890;5.930;2024-01-30T04:35:07;96897.75;;;3.84;84.34
49841;BME280;35738;49.890;5.930;2024-01-30T04:37:37;96909.47;;;3.75;84.82
49841;BME280;35738;49.890;5.930;2024-01-30T04:40:04;96897.81;;;3.71;85.42
49841;BME280;35738;49.890;5.930;2024-01-30T04:42:31;96905.91;;;3.62;85.03
49841;BME280;35738;49.890;5.930;2024-01-30T04:44:58;96902.13;;;3.58;85.29
49841;BME280;35738;49.890;5.930;2024-01-30T04:47:24;96898.50;;;3.53;86.03
49841;BME280;35738;49.890;5.930;2024-01-30T04:49:51;96898.53;;;3.46;85.64
49841;BME280;35738;49.890;5.930;2024-01-30T04:52:18;96892.31;;;3.47;85.30
49841;BME280;35738;49.890;5.930;2024-01-30T04:54:45;96903.78;;;3.46;86.01
49841;BME280;35738;49.890;5.930;2024-01-30T04:57:12;96913.41;;;3.46;86.47
49841;BME280;35738;49.890;5.930;2024-01-30T04:59:39;96912.03;;;3.43;86.08
49841;BME280;35738;49.890;5.930;2024-01-30T05:02:05;96911.00;;;3.44;85.84
49841;BME280;35738;49.890;5.930;2024-01-30T05:04:32;96913.03;;;3.42;85.62
49841;BME280;35738;49.890;5.930;2024-01-30T05:06:59;96915.84;;;3.41;85.66
49841;BME280;35738;49.890;5.930;2024-01-30T05:09:26;96911.03;;;3.38;86.27
49841;BME280;35738;49.890;5.930;2024-01-30T05:11:52;96911.84;;;3.38;86.53
49841;BME280;35738;49.890;5.930;2024-01-30T05:14:19;96913.03;;;3.42;85.85
49841;BME280;35738;49.890;5.930;2024-01-30T05:16:46;96906.41;;;3.40;86.89
49841;BME280;35738;49.890;5.930;2024-01-30T05:19:14;96900.16;;;3.47;85.84
49841;BME280;35738;49.890;5.930;2024-01-30T05:21:41;96902.75;;;3.47;85.87
49841;BME280;35738;49.890;5.930;2024-01-30T05:24:08;96891.31;;;3.48;86.53
49841;BME280;35738;49.890;5.930;2024-01-30T05:26:36;96903.13;;;3.57;86.37
49841;BME280;35738;49.890;5.930;2024-01-30T05:29:03;96901.25;;;3.64;86.77
49841;BME280;35738;49.890;5.930;2024-01-30T05:31:29;96911.06;;;3.69;86.96
49841;BME280;35738;49.890;5.930;2024-01-30T05:33:56;96903.44;;;3.74;86.58
49841;BME280;35738;49.890;5.930;2024-01-30T05:36:23;96902.78;;;3.79;86.82
49841;BME280;35738;49.890;5.930;2024-01-30T05:38:50;96899.97;;;3.80;86.46
49841;BME280;35738;49.890;5.930;2024-01-30T05:41:16;96893.94;;;3.80;85.81
49841;BME280;35738;49.890;5.930;2024-01-30T05:43:43;96898.75;;;3.83;86.26
49841;BME280;35738;49.890;5.930;2024-01-30T05:46:09;96890.34;;;3.81;86.46
49841;BME280;35738;49.890;5.930;2024-01-30T05:48:36;96887.88;;;3.86;86.10
49841;BME280;35738;49.890;5.930;2024-01-30T05:51:02;96889.47;;;3.87;86.23
49841;BME280;35738;49.890;5.930;2024-01-30T05:53:30;96886.63;;;3.95;86.23
49841;BME280;35738;49.890;5.930;2024-01-30T05:55:57;96891.44;;;3.98;85.66
49841;BME280;35738;49.890;5.930;2024-01-30T05:58:23;96906.28;;;3.98;85.67
49841;BME280;35738;49.890;5.930;2024-01-30T06:00:50;96894.47;;;3.95;85.49
49841;BME280;35738;49.890;5.930;2024-01-30T06:03:17;96896.06;;;3.96;85.63
49841;BME280;35738;49.890;5.930;2024-01-30T06:05:43;96896.66;;;3.98;85.08
49841;BME280;35738;49.890;5.930;2024-01-30T06:08:10;96898.47;;;3.98;85.42
49841;BME280;35738;49.890;5.930;2024-01-30T06:10:37;96893.88;;;3.93;85.11
49841;BME280;35738;49.890;5.930;2024-01-30T06:13:03;96892.69;;;3.89;84.90
49841;BME280;35738;49.890;5.930;2024-01-30T06:15:30;96903.53;;;3.86;86.10
49841;BME280;35738;49.890;5.930;2024-01-30T06:17:56;96901.78;;;3.80;84.91
49841;BME280;35738;49.890;5.930;2024-01-30T06:20:23;96903.44;;;3.74;85.55
49841;BME280;35738;49.890;5.930;2024-01-30T06:22:50;96907.66;;;3.69;85.33
49841;BME280;35738;49.890;5.930;2024-01-30T06:25:16;96900.69;;;3.62;85.54
49841;BME280;35738;49.890;5.930;2024-01-30T06:27:43;96899.66;;;3.63;85.57
49841;BME280;35738;49.890;5.930;2024-01-30T06:30:10;96883.16;;;3.70;85.35
49841;BME280;35738;49.890;5.930;2024-01-30T06:32:37;96890.38;;;3.74;85.22
49841;BME280;35738;49.890;5.930;2024-01-30T06:35:05;96886.34;;;3.78;85.02
49841;BME280;35738;49.890;5.930;2024-01-30T06:37:32;96887.88;;;3.86;85.20
49841;BME280;35738;49.890;5.930;2024-01-30T06:39:59;96880.25;;;3.84;86.09
49841;BME280;35738;49.890;5.930;2024-01-30T06:42:25;96887.28;;;3.84;85.84
49841;BME280;35738;49.890;5.930;2024-01-30T06:44:52;96885.53;;;3.78;85.46
49841;BME280;35738;49.890;5.930;2024-01-30T06:47:18;96882.72;;;3.79;85.07
49841;BME280;35738;49.890;5.930;2024-01-30T06:49:45;96891.19;;;3.75;85.44
49841;BME280;35738;49.890;5.930;2024-01-30T06:52:12;96890.41;;;3.68;85.82
49841;BME280;35738;49.890;5.930;2024-01-30T06:54:38;96884.00;;;3.63;84.60
49841;BME280;35738;49.890;5.930;2024-01-30T06:57:06;96897.47;;;3.60;84.61
49841;BME280;35738;49.890;5.930;2024-01-30T06:59:37;96901.72;;;3.55;84.59
49841;BME280;35738;49.890;5.930;2024-01-30T07:02:10;96920.59;;;3.50;84.38
49841;BME280;35738;49.890;5.930;2024-01-30T07:04:37;96920.59;;;3.50;85.51
49841;BME280;35738;49.890;5.930;2024-01-30T07:07:06;96919.38;;;3.53;85.33
49841;BME280;35738;49.890;5.930;2024-01-30T07:09:38;96926.63;;;3.57;85.08
49841;BME280;35738;49.890;5.930;2024-01-30T07:12:05;96926.41;;;3.59;84.89
49841;BME280;35738;49.890;5.930;2024-01-30T07:14:33;96926.56;;;3.64;85.30
49841;BME280;35738;49.890;5.930;2024-01-30T07:16:59;96916.94;;;3.64;85.60
49841;BME280;35738;49.890;5.930;2024-01-30T07:19:26;96916.34;;;3.62;85.95
49841;BME280;35738;49.890;5.930;2024-01-30T07:21:53;96936.22;;;3.63;84.97
49841;BME280;35738;49.890;5.930;2024-01-30T07:24:19;96929.78;;;3.66;84.82
49841;BME280;35738;49.890;5.930;2024-01-30T07:26:45;96926.56;;;3.64;85.78
49841;BME280;35738;49.890;5.930;2024-01-30T07:29:12;96926.56;;;3.64;85.53
49841;BME280;35738;49.890;5.930;2024-01-30T07:31:39;96918.53;;;3.65;85.49
49841;BME280;35738;49.890;5.930;2024-01-30T07:34:06;96913.72;;;3.62;84.93
49841;BME280;35738;49.890;5.930;2024-01-30T07:36:33;96921.78;;;3.61;85.40
49841;BME280;35738;49.890;5.930;2024-01-30T07:38:59;96924.00;;;3.57;84.96
49841;BME280;35738;49.890;5.930;2024-01-30T07:41:26;96936.25;;;3.57;86.29
49841;BME280;35738;49.890;5.930;2024-01-30T07:43:53;96925.44;;;3.53;84.81
49841;BME280;35738;49.890;5.930;2024-01-30T07:46:20;96926.41;;;3.52;85.52
49841;BME280;35738;49.890;5.930;2024-01-30T07:48:46;96935.88;;;3.53;85.49
49841;BME280;35738;49.890;5.930;2024-01-30T07:51:13;96932.25;;;3.54;85.61
49841;BME280;35738;49.890;5.930;2024-01-30T07:53:40;96923.00;;;3.58;85.09
49841;BME280;35738;49.890;5.930;2024-01-30T07:56:06;96927.78;;;3.61;84.90
49841;BME280;35738;49.890;5.930;2024-01-30T07:58:33;96929.78;;;3.66;85.79
49841;BME280;35738;49.890;5.930;2024-01-30T08:00:59;96932.38;;;3.73;85.41
49841;BME280;35738;49.890;5.930;2024-01-30T08:03:27;96936.91;;;3.84;85.38
49841;BME280;35738;49.890;5.930;2024-01-30T08:05:54;96942.91;;;3.91;85.40
49841;BME280;35738;49.890;5.930;2024-01-30T08:08:20;96945.25;;;3.99;85.17
49841;BME280;35738;49.890;5.930;2024-01-30T08:10:47;96949.03;;;4.10;84.97
49841;BME280;35738;49.890;5.930;2024-01-30T08:13:14;96945.56;;;4.16;85.05
49841;BME280;35738;49.890;5.930;2024-01-30T08:15:41;96953.34;;;4.22;85.11
49841;BME280;35738;49.890;5.930;2024-01-30T08:18:07;96951.91;;;4.26;84.95
49841;BME280;35738;49.890;5.930;2024-01-30T08:20:34;96959.13;;;4.31;84.61
49841;BME280;35738;49.890;5.930;2024-01-30T08:23:01;96957.91;;;4.34;84.54
49841;BME280;35738;49.890;5.930;2024-01-30T08:25:27;96956.66;;;4.36;84.99
49841;BME280;35738;49.890;5.930;2024-01-30T08:27:54;96963.84;;;4.41;84.45
49841;BME280;35738;49.890;5.930;2024-01-30T08:30:21;96950.56;;;4.42;84.47
49841;BME280;35738;49.890;5.930;2024-01-30T08:32:47;96952.59;;;4.40;84.84
49841;BME280;35738;49.890;5.930;2024-01-30T08:35:14;96948.97;;;4.41;83.96
49841;BME280;35738;49.890;5.930;2024-01-30T08:37:42;96951.38;;;4.43;84.89
49841;BME280;35738;49.890;5.930;2024-01-30T08:40:09;96955.19;;;4.47;84.09
49841;BME280;35738;49.890;5.930;2024-01-30T08:42:36;96952.16;;;4.50;84.44
49841;BME280;35738;49.890;5.930;2024-01-30T08:45:03;96952.50;;;4.53;83.82
49841;BME280;35738;49.890;5.930;2024-01-30T08:47:31;96958.09;;;4.57;83.54
49841;BME280;35738;49.890;5.930;2024-01-30T08:49:58;96957.25;;;4.63;83.53
49841;BME280;35738;49.890;5.930;2024-01-30T08:52:24;96953.22;;;4.67;83.60
49841;BME280;35738;49.890;5.930;2024-01-30T08:54:51;96958.00;;;4.70;83.50
49841;BME280;35738;49.890;5.930;2024-01-30T08:57:18;96970.50;;;4.68;83.96
49841;BME280;35738;49.890;5.930;2024-01-30T08:59:44;96970.50;;;4.68;83.64
49841;BME280;35738;49.890;5.930;2024-01-30T09:02:13;96968.47;;;4.70;83.47
49841;BME280;35738;49.890;5.930;2024-01-30T09:04:42;96962.44;;;4.70;83.17
49841;BME280;35738;49.890;5.930;2024-01-30T09:07:09;96973.25;;;4.73;83.16
49841;BME280;35738;49.890;5.930;2024-01-30T09:09:41;96980.47;;;4.78;82.49
49841;BME280;35738;49.890;5.930;2024-01-30T09:12:07;96986.50;;;4.78;83.00
49841;BME280;35738;49.890;5.930;2024-01-30T09:14:36;96976.03;;;4.78;82.33
49841;BME280;35738;49.890;5.930;2024-01-30T09:17:03;96988.66;;;4.81;83.00
49841;BME280;35738;49.890;5.930;2024-01-30T09:19:30;96991.28;;;4.81;83.04
49841;BME280;35738;49.890;5.930;2024-01-30T09:21:57;97008.16;;;4.85;82.61
49841;BME280;35738;49.890;5.930;2024-01-30T09:24:25;97007.75;;;4.89;82.77
49841;BME280;35738;49.890;5.930;2024-01-30T09:26:52;97008.47;;;4.96;83.00
49841;BME280;35738;49.890;5.930;2024-01-30T09:29:19;97013.22;;;5.05;82.24
49841;BME280;35738;49.890;5.930;2024-01-30T09:31:45;97012.56;;;5.10;82.61
49841;BME280;35738;49.890;5.930;2024-01-30T09:34:13;97012.56;;;5.10;81.85
49841;BME280;35738;49.890;5.930;2024-01-30T09:36:40;97011.56;;;5.11;82.15
49841;BME280;35738;49.890;5.930;2024-01-30T09:39:06;97015.63;;;5.07;82.57
49841;BME280;35738;49.890;5.930;2024-01-30T09:41:44;97017.22;;;5.08;81.90
49841;BME280;35738;49.890;5.930;2024-01-30T09:44:12;97015.56;;;5.13;82.16
49841;BME280;35738;49.890;5.930;2024-01-30T09:46:40;97025.94;;;5.20;82.19
49841;BME280;35738;49.890;5.930;2024-01-30T09:49:08;97010.41;;;5.25;82.87
49841;BME280;35738;49.890;5.930;2024-01-30T09:51:35;97007.50;;;5.33;82.94
49841;BME280;35738;49.890;5.930;2024-01-30T09:54:02;97009.63;;;5.43;82.16
49841;BME280;35738;49.890;5.930;2024-01-30T09:56:29;97008.31;;;5.52;82.91
49841;BME280;35738;49.890;5.930;2024-01-30T09:58:55;97023.53;;;5.62;81.80
49841;BME280;35738;49.890;5.930;2024-01-30T10:01:22;97024.25;;;5.69;82.41
49841;BME280;35738;49.890;5.930;2024-01-30T10:03:50;97022.94;;;5.78;82.72
49841;BME280;35738;49.890;5.930;2024-01-30T10:06:19;97014.31;;;5.89;81.75
49841;BME280;35738;49.890;5.930;2024-01-30T10:08:49;97017.03;;;6.01;82.31
49841;BME280;35738;49.890;5.930;2024-01-30T10:11:15;97007.19;;;6.15;81.76
49841;BME280;35738;49.890;5.930;2024-01-30T10:13:42;97016.78;;;6.21;81.22
49841;BME280;35738;49.890;5.930;2024-01-30T10:16:08;97012.47;;;6.26;80.67
49841;BME280;35738;49.890;5.930;2024-01-30T10:18:35;97005.97;;;6.29;81.12
49841;BME280;35738;49.890;5.930;2024-01-30T10:21:01;97016.44;;;6.29;80.98
49841;BME280;35738;49.890;5.930;2024-01-30T10:23:29;97017.13;;;6.24;80.66
49841;BME280;35738;49.890;5.930;2024-01-30T10:26:03;97021.66;;;6.17;80.24
49841;BME280;35738;49.890;5.930;2024-01-30T10:28:30;97021.22;;;6.20;80.51
49841;BME280;35738;49.890;5.930;2024-01-30T10:30:58;97025.66;;;6.20;80.49
49841;BME280;35738;49.890;5.930;2024-01-30T10:33:30;97030.91;;;6.20;81.16
49841;BME280;35738;49.890;5.930;2024-01-30T10:36:02;97030.47;;;6.23;81.14
49841;BME280;35738;49.890;5.930;2024-01-30T10:38:30;97022.50;;;6.29;81.16
49841;BME280;35738;49.890;5.930;2024-01-30T10:40:58;97020.25;;;6.33;80.38
49841;BME280;35738;49.890;5.930;2024-01-30T10:43:40;97015.34;;;6.36;80.33
49841;BME280;35738;49.890;5.930;2024-01-30T10:46:18;97020.59;;;6.36;80.47
49841;BME280;35738;49.890;5.930;2024-01-30T10:48:57;97021.16;;;6.38;81.13
49841;BME280;35738;49.890;5.930;2024-01-30T10:51:28;97030.97;;;6.43;80.58
49841;BME280;35738;49.890;5.930;2024-01-30T10:53:56;97033.31;;;6.51;81.07
49841;BME280;35738;49.890;5.930;2024-01-30T10:56:24;97023.22;;;6.48;80.84
49841;BME280;35738;49.890;5.930;2024-01-30T10:58:52;97021.19;;;6.50;81.15
49841;BME280;35738;49.890;5.930;2024-01-30T11:01:20;97017.56;;;6.51;80.39
49841;BME280;35738;49.890;5.930;2024-01-30T11:03:52;97014.16;;;6.62;80.35
49841;BME280;35738;49.890;5.930;2024-01-30T11:06:23;97005.72;;;6.60;80.36
49841;BME280;35738;49.890;5.930;2024-01-30T11:09:03;97007.31;;;6.61;80.44
49841;BME280;35738;49.890;5.930;2024-01-30T11:11:30;96999.44;;;6.61;80.14
49841;BME280;35738;49.890;5.930;2024-01-30T11:14:01;97004.13;;;6.59;80.56
49841;BME280;35738;49.890;5.930;2024-01-30T11:16:32;97014.84;;;6.58;80.52
49841;BME280;35738;49.890;5.930;2024-01-30T11:19:04;97005.38;;;6.57;79.99
49841;BME280;35738;49.890;5.930;2024-01-30T11:21:52;96999.78;;;6.53;80.88
49841;BME280;35738;49.890;5.930;2024-01-30T11:24:21;97000.94;;;6.57;80.98
49841;BME280;35738;49.890;5.930;2024-01-30T11:26:59;97005.03;;;6.53;80.76
49841;BME280;35738;49.890;5.930;2024-01-30T11:29:28;97005.44;;;6.50;80.47
49841;BME280;35738;49.890;5.930;2024-01-30T11:32:00;97000.13;;;6.57;81.09
49841;BME280;35738;49.890;5.930;2024-01-30T11:34:50;97006.50;;;6.61;81.02
49841;BME280;35738;49.890;5.930;2024-01-30T11:37:36;97003.09;;;6.60;80.58
49841;BME280;35738;49.890;5.930;2024-01-30T11:40:04;97007.44;;;6.66;80.77
49841;BME280;35738;49.890;5.930;2024-01-30T11:42:31;97010.84;;;6.67;81.27
49841;BME280;35738;49.890;5.930;2024-01-30T11:45:00;97003.34;;;6.71;80.42
49841;BME280;35738;49.890;5.930;2024-01-30T11:47:27;97005.50;;;6.74;80.48
49841;BME280;35738;49.890;5.930;2024-01-30T11:49:54;97009.84;;;6.80;80.62
49841;BME280;35738;49.890;5.930;2024-01-30T11:52:25;97004.25;;;6.88;81.47
49841;BME280;35738;49.890;5.930;2024-01-30T11:54:51;97014.09;;;6.92;81.61
49841;BME280;35738;49.890;5.930;2024-01-30T11:57:18;97006.22;;;6.92;80.76
49841;BME280;35738;49.890;5.930;2024-01-30T11:59:44;97008.50;;;6.89;80.30
49841;BME280;35738;49.890;5.930;2024-01-30T12:02:15;97018.28;;;6.82;80.73
49841;BME280;35738;49.890;5.930;2024-01-30T12:04:43;97011.34;;;6.76;81.13
49841;BME280;35738;49.890;5.930;2024-01-30T12:07:10;97014.28;;;6.67;80.97
49841;BME280;35738;49.890;5.930;2024-01-30T12:09:37;97019.66;;;6.73;81.55
49841;BME280;35738;49.890;5.930;2024-01-30T12:12:04;97017.16;;;6.78;81.64
49841;BME280;35738;49.890;5.930;2024-01-30T12:14:31;97017.59;;;6.75;82.23
49841;BME280;35738;49.890;5.930;2024-01-30T12:16:58;97024.00;;;6.79;81.67
49841;BME280;35738;49.890;5.930;2024-01-30T12:19:25;97017.94;;;6.78;82.02
49841;BME280;35738;49.890;5.930;2024-01-30T12:21:56;97031.19;;;6.72;82.23
49841;BME280;35738;49.890;5.930;2024-01-30T12:24:26;97000.81;;;6.64;81.56
49841;BME280;35738;49.890;5.930;2024-01-30T12:26:57;97006.63;;;6.54;82.62
49841;BME280;35738;49.890;5.930;2024-01-30T12:29:24;97018.81;;;6.60;83.00
49841;BME280;35738;49.890;5.930;2024-01-30T12:31:53;97020.66;;;6.60;83.36
49841;BME280;35738;49.890;5.930;2024-01-30T12:34:21;97017.13;;;6.54;83.86
49841;BME280;35738;49.890;5.930;2024-01-30T12:36:48;97014.59;;;6.59;82.51
49841;BME280;35738;49.890;5.930;2024-01-30T12:39:15;97010.97;;;6.60;82.90
49841;BME280;35738;49.890;5.930;2024-01-30T12:41:42;97008.44;;;6.65;82.69
49841;BME280;35738;49.890;5.930;2024-01-30T12:44:09;97012.38;;;6.75;83.25
49841;BME280;35738;49.890;5.930;2024-01-30T12:46:35;97009.47;;;6.64;83.54
49841;BME280;35738;49.890;5.930;2024-01-30T12:49:02;97011.22;;;6.71;83.52
49841;BME280;35738;49.890;5.930;2024-01-30T12:51:29;97001.06;;;6.74;83.63
49841;BME280;35738;49.890;5.930;2024-01-30T12:53:55;97001.06;;;6.74;83.68
49841;BME280;35738;49.890;5.930;2024-01-30T12:56:22;97008.13;;;6.74;83.59
49841;BME280;35738;49.890;5.930;2024-01-30T12:58:49;97004.00;;;6.66;83.87
49841;BME280;35738;49.890;5.930;2024-01-30T13:01:19;97007.66;;;6.65;83.86
49841;BME280;35738;49.890;5.930;2024-01-30T13:03:46;97008.09;;;6.62;84.23
49841;BME280;35738;49.890;5.930;2024-01-30T13:06:13;96997.97;;;6.65;83.48
49841;BME280;35738;49.890;5.930;2024-01-30T13:08:39;96995.25;;;6.72;82.99
49841;BME280;35738;49.890;5.930;2024-01-30T13:11:06;97001.75;;;6.81;83.10